Tiempo atmosférico en la estación meteorológica de Cieza, Murcia (265 m.)

Fecha
DESCASC
Temp. máxima en grados centígrados (hora)
DESCASC
Temp. mínima en grados centígrados (hora)
DESCASC
Temp. media en grados centígrados
DESCASC
Racha de viento máxima en m/sg (hora)
DESCASC
Velocidad máxima media en intervalos de 10 minutos(hora)
DESCASC
Precipitaciones diarias en mm
DESCASC
Precipitaciones de 00:00 a 06:00 en mm
DESCASC
Precipitaciones de 06:00 a 12:00 en mm
DESCASC
Precipitaciones de 12:00 a 18:00 en mm
DESCASC
Precipitaciones de 18:00 a 24:00 en mm
DESCASC
17-08-2017 34.3 (16:50) 21.5 (06:00) 27.9 12.22 (18:00) 6.39 (18:40) 0 0 0 0 0
16-08-2017 34.8 (16:50) 20.3 (07:30) 27.5 12.22 (18:10) 7.5 (18:10) 0 0 0 0 0
15-08-2017 33.4 (16:40) 19.5 (00:00) 26.5 11.67 (17:30) 6.94 (17:30) 0 0 0 0 0
14-08-2017 30.3 (16:30) 17.7 (07:40) 24 11.11 (15:50) 6.94 (19:10) 1.2 0 1.1 0.1 0
13-08-2017 30 (15:30) 16.2 (00:00) 23.1 12.22 (19:10) 7.22 (20:10) 0 0 0 0 0
12-08-2017 29.8 (17:20) 16.9 (00:00) 23.3 12.22 (19:50) 6.67 (19:40) 0 0 0 0 0
11-08-2017 29.6 (17:40) 18.1 (00:00) 23.9 10.83 (19:50) 6.39 (21:00) 0 0 0 0 0
10-08-2017 27.1 (16:30) 17.1 (00:00) 22.1 10.83 (02:00) 6.39 (17:50) 5.2 1.1 4.1 0 0
09-08-2017 34.4 (16:40) 21.8 (00:00) 28.1 14.72 (17:50) 7.5 (19:20) 0 0 0 0 0
08-08-2017 39.5 (17:10) 21.5 (00:00) 30.5 11.11 (17:40) 7.22 (19:30) 0 0 0 0 0
07-08-2017 34.8 (17:50) 22.1 (00:00) 28.4 13.06 (18:30) 7.22 (18:40) 6.4 0 0 0 6.4
06-08-2017 33.7 (15:30) 21 (00:00) 27.4 12.5 (15:40) 7.5 (16:40) 0 0 0 0 0
05-08-2017 36.7 (15:40) 21.6 (00:00) 29.2 13.33 (17:20) 7.5 (18:50) 0 0 0 0 0
04-08-2017 37.7 (14:50) 23.3 (00:00) 30.5 11.67 (18:30) 6.67 (19:10) 0 0 0 0 0
03-08-2017 40.6 (18:10) 22.1 (00:00) 31.3 11.67 (20:20) 7.22 (19:00) 0 0 0 0 0
02-08-2017 34.4 (17:50) 24 (00:00) 29.2 11.39 (05:20) 5.83 (20:30) 0 0 0 0 0
01-08-2017 34.6 (16:20) 22.4 (00:00) 28.5 16.39 (20:00) 8.89 (20:00) 0 0 0 0 0
31-07-2017 34.1 (15:40) 19.8 (00:00) 26.9 11.39 (12:40) 7.22 (20:40) 0 0 0 0 0
30-07-2017 39.4 (16:00) 19.8 (00:00) 29.6 12.78 (17:10) 7.22 (17:00) 0 0 0 0 0
29-07-2017 35.9 (15:20) 18.9 (00:00) 27.4 11.39 (16:50) 6.39 (16:40) 0 0 0 0 0
28-07-2017 37.7 (15:10) 19.8 (00:00) 28.8 12.5 (17:20) 7.5 (17:20) 0 0 0 0 0
27-07-2017 36.3 (17:20) 19.8 (00:00) 28 11.39 (16:30) 6.39 (16:30) 0 0 0 0 0
26-07-2017 36.3 (17:00) 22.3 (00:00) 29.3 13.89 (18:20) 7.78 (18:20) 0 0 0 0 0
25-07-2017 31.5 (16:10) 19.9 (00:00) 25.7 13.06 (18:10) 7.5 (20:00) 0 0 0 0 0
24-07-2017 36.1 (16:00) 18.4 (00:00) 27.2 13.61 (18:40) 7.78 (17:40) 0 0 0 0 0
23-07-2017 34 (17:30) 20.7 (00:00) 27.4 11.11 (20:20) 7.22 (20:20) 0 0 0 0 0
22-07-2017 33.5 (16:40) 20.2 (00:00) 26.9 11.11 (21:00) 6.67 (21:00) 0 0 0 0 0
21-07-2017 33.7 (17:30) 21.6 (00:00) 27.7 11.67 (20:50) 6.67 (20:10) 0 0 0 0 0
20-07-2017 35.6 (14:20) 21 (00:00) 28.3 14.44 (15:50) 8.06 (16:40) 0 0 0 0 0
19-07-2017 35.1 (16:40) 20.8 (00:00) 27.9 12.5 (18:30) 6.67 (18:10) 0 0 0 0 0

Gráficas

Temp. máximas Temp. mínimas Temp. medias Precipitaciones Rachas de viento máximas Velocidades máximas media en intervalos de 10 minutos

Datos horarios

Fecha y hora oficial Temperatura (ºC) Velocidad del viento (km/h) Dirección del viento Racha (km/h) Dirección de racha Precipitación (mm) Presión (hPa) Tendencia (hPa) Humedad (%)
2017-08-17 23:00:00 25.1 16 Sudeste 25 Sudeste 0 -- -- 80
2017-08-17 22:00:00 25.9 15 Sudeste 27 Sudeste 0 -- -- 71
2017-08-17 21:00:00 27.2 14 Sudeste 32 Este 0 -- -- 61
2017-08-17 20:00:00 29.1 19 Sudeste 38 Este 0 -- -- 50
2017-08-17 19:00:00 30.9 23 Este 40 Sudeste 0 -- -- 44
2017-08-17 18:00:00 32.8 20 Sudeste 44 Sudeste 0 -- -- 37
2017-08-17 17:00:00 33.9 18 Sudeste 33 Este 0 -- -- 35
2017-08-17 16:00:00 33.5 16 Sudeste 32 Sudeste 0 -- -- 37
2017-08-17 15:00:00 32.4 13 Sudeste 30 Sudeste 0 -- -- 37
2017-08-17 14:00:00 31.7 14 Sudeste 30 Este 0 -- -- 41
2017-08-17 13:00:00 30.7 12 Sudeste 28 Sudeste 0 -- -- 42
2017-08-17 12:00:00 29.2 5 Este 19 Este 0 -- -- 51
2017-08-17 11:00:00 26 0 Calma 9 Oeste 0 -- -- 70
2017-08-17 10:00:00 24.3 5 Oeste 10 Oeste 0 -- -- 80
2017-08-17 09:00:00 22.9 0 Calma 6 Oeste 0 -- -- 90
2017-08-17 08:00:00 22 2 Oeste 6 Oeste 0 -- -- 91
2017-08-17 07:00:00 21.8 0 Calma -- -- 0 -- -- 91
2017-08-17 06:00:00 21.5 0 Calma -- -- 0 -- -- 90
2017-08-17 05:00:00 22.4 0 Calma 7 Este 0 -- -- 89
2017-08-17 04:00:00 22.7 4 Este 9 Sudeste 0 -- -- 88
2017-08-17 03:00:00 23 0 Calma 11 Sudeste 0 -- -- 86
2017-08-17 02:00:00 23.8 7 Sudeste 18 Sudeste 0 -- -- 83
2017-08-17 01:00:00 24.4 13 Sudeste 23 Sudeste 0 -- -- 79
2017-08-17 00:00:00 24.8 11 Sudeste 23 Sudeste 0 -- -- 75
2017-08-16 23:00:00 25.5 15 Sudeste 23 Sudeste 0 -- -- 70
2017-08-16 22:00:00 26.4 12 Sudeste 28 Sudeste 0 -- -- 65
2017-08-16 21:00:00 27.6 17 Sudeste 36 Sudeste 0 -- -- 60
2017-08-16 20:00:00 29.2 22 Sudeste 43 Sudeste 0 -- -- 53
2017-08-16 19:00:00 31 22 Sudeste 44 Sudeste 0 -- -- 47
2017-08-16 18:00:00 32.6 25 Este 43 Este 0 -- -- 42
2017-08-16 17:00:00 34.3 17 Sudeste 34 Sudeste 0 -- -- 36
2017-08-16 16:00:00 33.8 21 Sudeste 33 Sudeste 0 -- -- 38
2017-08-16 15:00:00 33.3 16 Este 30 Sudeste 0 -- -- 39
2017-08-16 14:00:00 32.3 9 Sudeste 18 Sudeste 0 -- -- 40
2017-08-16 13:00:00 30.8 5 Sudeste 16 Sudeste 0 -- -- 46
2017-08-16 12:00:00 28.6 2 Nordeste 12 Sudeste 0 -- -- 57
2017-08-16 11:00:00 26.2 0 Calma 12 Este 0 -- -- 68
2017-08-16 10:00:00 24.4 3 Este 11 Este 0 -- -- 80
2017-08-16 09:00:00 21.4 0 Calma -- -- 0 -- -- 88
2017-08-16 08:00:00 20.3 0 Calma 6 Sudeste 0 -- -- 91
2017-08-16 07:00:00 20.6 0 Calma -- -- 0 -- -- 91
2017-08-16 06:00:00 21.4 0 Calma -- -- 0 -- -- 91
2017-08-16 05:00:00 21.6 0 Calma -- -- 0 -- -- 91
2017-08-16 04:00:00 22.4 2 Sudeste 12 Sudeste 0 -- -- 91
2017-08-16 03:00:00 22.6 4 Sudeste 10 Este 0 -- -- 91
2017-08-16 02:00:00 23.1 4 Este 9 Este 0 -- -- 90
2017-08-16 01:00:00 23.6 4 Este 17 Sudeste 0 -- -- 87
2017-08-16 00:00:00 24.3 9 Sudeste 26 Sudeste 0 -- -- 82
2017-08-15 23:00:00 24.9 13 Sudeste 25 Sudeste 0 -- -- 78
2017-08-15 22:00:00 25.5 10 Sudeste 25 Sudeste 0 -- -- 75
2017-08-15 21:00:00 26.7 14 Sudeste 31 Sudeste 0 -- -- 67
2017-08-15 20:00:00 27.8 22 Sudeste 38 Sudeste 0 -- -- 58
2017-08-15 19:00:00 28.6 17 Sudeste 36 Este 0 -- -- 54
2017-08-15 18:00:00 29.3 25 Sudeste 42 Sudeste 0 -- -- 51
2017-08-15 17:00:00 31.2 19 Sudeste 33 Sudeste 0 -- -- 42
2017-08-15 16:00:00 32.7 19 Sudeste 33 Sudeste 0 -- -- 37
2017-08-15 15:00:00 32.6 16 Sudeste 31 Este 0 -- -- 36
2017-08-15 14:00:00 31.2 9 Sudeste 18 Sudeste 0 -- -- 38
2017-08-15 13:00:00 29.7 6 Sudeste 14 Oeste 0 -- -- 39
2017-08-15 12:00:00 28.1 3 Sudeste 9 Sudeste 0 -- -- 44
2017-08-15 11:00:00 25.4 4 Nordeste 13 Este 0 -- -- 52
2017-08-15 10:00:00 23.6 4 Este 10 Sudeste 0 -- -- 65
2017-08-15 09:00:00 20.9 8 Oeste 20 Oeste 0 -- -- 77
2017-08-15 08:00:00 20.1 7 Oeste 12 Noroeste 0 -- -- 83
2017-08-15 07:00:00 19.7 7 Oeste 14 Oeste 0 -- -- 86
2017-08-15 06:00:00 19.7 6 Oeste 14 Oeste 0 -- -- 89
2017-08-15 05:00:00 20 8 Oeste 14 Oeste 0 -- -- 88
2017-08-15 04:00:00 19.9 8 Oeste 11 Oeste 0 -- -- 90
2017-08-15 03:00:00 19.8 3 Este 6 Este 0 -- -- 90
2017-08-15 02:00:00 21.5 0 Calma 4 Este 0 -- -- 86
2017-08-15 01:00:00 22.4 0 Calma 17 Sudeste 0 -- -- 82
2017-08-15 00:00:00 22.7 11 Sudeste 23 Sudeste 0 -- -- 82
2017-08-14 23:00:00 23.1 13 Sudeste 33 Sudeste 0 -- -- 76
2017-08-14 22:00:00 23.8 19 Sudeste 32 Sudeste 0 -- -- 64
2017-08-14 21:00:00 25.2 19 Sudeste 34 Sudeste 0 -- -- 54
2017-08-14 20:00:00 27.1 18 Sudeste 37 Sudeste 0 -- -- 41
2017-08-14 19:00:00 28.7 21 Sudeste 37 Sudeste 0 -- -- 35
2017-08-14 18:00:00 29.7 20 Sudeste 36 Sudeste 0 -- -- 32
2017-08-14 17:00:00 29.4 21 Sudeste 39 Sudeste 0 -- -- 34
2017-08-14 16:00:00 29.8 21 Sudeste 40 Sudeste 0 -- -- 38
2017-08-14 15:00:00 29.2 19 Sudeste 35 Sur 0 -- -- 39
2017-08-14 14:00:00 28.8 14 Sudeste 37 Sudeste 0.1 -- -- 45
2017-08-14 13:00:00 26.5 6 Este 17 Sudeste 0 -- -- 54
2017-08-14 12:00:00 24.3 3 Este 11 Sur 1.1 -- -- 66
2017-08-14 11:00:00 23.8 3 Norte 12 Oeste 0 -- -- 64
2017-08-14 10:00:00 21.3 3 Noroeste 10 Oeste 0 -- -- 78
2017-08-14 09:00:00 19.1 6 Noroeste 12 Oeste 0 -- -- 86
2017-08-14 08:00:00 18.4 2 Oeste 6 Nordeste 0 -- -- 89
2017-08-14 07:00:00 18.5 0 Calma 5 Norte 0 -- -- 88
2017-08-14 06:00:00 18.4 2 Norte 7 Nordeste 0 -- -- 88
2017-08-14 05:00:00 19 0 Calma -- -- 0 -- -- 86
2017-08-14 04:00:00 19.3 0 Calma -- -- 0 -- -- 86
2017-08-14 03:00:00 20 0 Calma -- -- 0 -- -- 81
2017-08-14 02:00:00 21.6 0 Calma 13 Sudeste 0 -- -- 76
2017-08-14 01:00:00 22.8 10 Sudeste 21 Sudeste 0 -- -- 74
2017-08-14 00:00:00 22.3 11 Sudeste 21 Sur 0 -- -- 74
2017-08-13 23:00:00 22.4 14 Sudeste 30 Sudeste 0 -- -- 74
2017-08-13 22:00:00 22.9 21 Sudeste 32 Sudeste 0 -- -- 68
2017-08-13 21:00:00 23.8 22 Sudeste 39 Sudeste 0 -- -- 61
2017-08-13 20:00:00 25.2 24 Sudeste 44 Sudeste 0 -- -- 53
2017-08-13 19:00:00 26.9 20 Sudeste 39 Sudeste 0 -- -- 45
2017-08-13 18:00:00 28.4 19 Sudeste 39 Sudeste 0 -- -- 36
2017-08-13 17:00:00 29.8 19 Sudeste 35 Sudeste 0 -- -- 33
2017-08-13 16:00:00 29.4 21 Sudeste 35 Este 0 -- -- 33
2017-08-13 15:00:00 29.2 19 Sudeste 38 Sudeste 0 -- -- 38
2017-08-13 14:00:00 27.9 16 Sudeste 30 Sudeste 0 -- -- 44
2017-08-13 13:00:00 27.4 11 Sudeste 26 Este 0 -- -- 47
2017-08-13 12:00:00 25.8 11 Sudeste 23 Sudeste 0 -- -- 51
2017-08-13 11:00:00 23.5 0 Calma 11 Oeste 0 -- -- 63
2017-08-13 10:00:00 19.9 6 Oeste 12 Oeste 0 -- -- 73
2017-08-13 09:00:00 17.9 5 Noroeste 10 Noroeste 0 -- -- 83
2017-08-13 08:00:00 16.4 3 Oeste 5 Oeste 0 -- -- 89
2017-08-13 07:00:00 16.3 0 Calma -- -- 0 -- -- 88
2017-08-13 06:00:00 17.2 0 Calma -- -- 0 -- -- 86
2017-08-13 05:00:00 18.1 0 Calma 9 Oeste 0 -- -- 86
2017-08-13 04:00:00 18.3 0 Calma 7 Nordeste 0 -- -- 85
2017-08-13 03:00:00 18.4 2 Este 8 Nordeste 0 -- -- 80
2017-08-13 02:00:00 19.9 3 Este 16 Sudeste 0 -- -- 80
2017-08-13 01:00:00 20.8 10 Sudeste 16 Sudeste 0 -- -- 76
2017-08-13 00:00:00 21.3 9 Sudeste 19 Sudeste 0 -- -- 70
2017-08-12 23:00:00 22 14 Sudeste 26 Sudeste 0 -- -- 60
2017-08-12 22:00:00 22.8 16 Sudeste 29 Sudeste 0 -- -- 54
2017-08-12 21:00:00 23.9 18 Sudeste 39 Sudeste 0 -- -- 46
2017-08-12 20:00:00 25.6 22 Sudeste 44 Sudeste 0 -- -- 39
2017-08-12 19:00:00 27.2 22 Sudeste 40 Sudeste 0 -- -- 35
2017-08-12 18:00:00 28.4 22 Sudeste 39 Sudeste 0 -- -- 31
2017-08-12 17:00:00 29.2 20 Sudeste 34 Este 0 -- -- 29
2017-08-12 16:00:00 28.9 17 Sudeste 33 Sudeste 0 -- -- 34
2017-08-12 15:00:00 28.5 15 Sudeste 32 Sudeste 0 -- -- 36
2017-08-12 14:00:00 28.1 13 Sudeste 30 Sudeste 0 -- -- 37
2017-08-12 13:00:00 26.6 14 Sudeste 29 Sudeste 0 -- -- 43
2017-08-12 12:00:00 26 9 Sudeste 19 Sudeste 0 -- -- 47
2017-08-12 11:00:00 23.3 2 Noroeste 13 Oeste 0 -- -- 59
2017-08-12 10:00:00 20.5 5 Noroeste 10 Oeste 0 -- -- 74
2017-08-12 09:00:00 18.6 3 Oeste 6 Oeste 0 -- -- 86
2017-08-12 08:00:00 17.2 0 Calma 6 Oeste 0 -- -- 90
2017-08-12 07:00:00 17.3 4 Oeste 9 Oeste 0 -- -- 90
2017-08-12 06:00:00 17.5 7 Oeste 10 Oeste 0 -- -- 90
2017-08-12 05:00:00 18.2 4 Oeste 9 Nordeste 0 -- -- 88
2017-08-12 04:00:00 18.5 0 Calma 8 Nordeste 0 -- -- 87
2017-08-12 03:00:00 19.1 0 Calma 10 Sudeste 0 -- -- 85
2017-08-12 02:00:00 20.4 8 Sudeste 15 Sudeste 0 -- -- 79
2017-08-12 01:00:00 20.8 10 Sudeste 22 Sudeste 0 -- -- 78
2017-08-12 00:00:00 21.2 13 Sudeste 23 Sudeste 0 -- -- 76
2017-08-11 23:00:00 21.7 15 Sudeste 24 Sudeste 0 -- -- 73
2017-08-11 22:00:00 22.3 17 Sudeste 36 Sudeste 0 -- -- 69
2017-08-11 21:00:00 23.4 23 Sudeste 37 Sudeste 0 -- -- 58
2017-08-11 20:00:00 25.4 21 Sudeste 39 Sudeste 0 -- -- 48
2017-08-11 19:00:00 27.4 18 Sudeste 35 Este 0 -- -- 39
2017-08-11 18:00:00 28.7 19 Este 32 Sudeste 0 -- -- 37
2017-08-11 17:00:00 28.7 17 Sudeste 33 Sudeste 0 -- -- 38
2017-08-11 16:00:00 28.7 15 Sudeste 33 Sudeste 0 -- -- 37
2017-08-11 15:00:00 29.2 15 Sudeste 33 Sudeste 0 -- -- 35
2017-08-11 14:00:00 28 16 Sudeste 31 Este 0 -- -- 35
2017-08-11 13:00:00 27.1 15 Sudeste 31 Este 0 -- -- 39
2017-08-11 12:00:00 26.5 10 Sudeste 28 Sudeste 0 -- -- 39
2017-08-11 11:00:00 24.7 3 Sudeste 12 Sudeste 0 -- -- 46
2017-08-11 10:00:00 22.3 2 Oeste 8 Sudoeste 0 -- -- 66
2017-08-11 09:00:00 21.1 2 Norte 6 Norte 0 -- -- 70
2017-08-11 08:00:00 19.2 0 Calma 5 Norte 0 -- -- 76
2017-08-11 07:00:00 19.5 0 Calma 8 Sudeste 0 -- -- 74
2017-08-11 06:00:00 19.3 0 Calma 7 Este 0 -- -- 75
2017-08-11 05:00:00 19.2 2 Este 8 Nordeste 0 -- -- 76
2017-08-11 04:00:00 18.8 4 Sudeste 10 Este 0 -- -- 77
2017-08-11 03:00:00 18.4 3 Este 7 Nordeste 0 -- -- 80
2017-08-11 02:00:00 18.6 3 Este 14 Este 0 -- -- 79
2017-08-11 01:00:00 20.1 8 Sudeste 17 Sudeste 0 -- -- 73
2017-08-11 00:00:00 20.5 10 Sudeste 21 Sudeste 0 -- -- 70
2017-08-10 23:00:00 20.8 13 Sudeste 27 Sudeste 0 -- -- 70
2017-08-10 22:00:00 21.2 15 Sudeste 31 Sudeste 0 -- -- 69
2017-08-10 21:00:00 22 19 Sudeste 33 Sudeste 0 -- -- 64
2017-08-10 20:00:00 24 18 Sudeste 32 Sudeste 0 -- -- 56
2017-08-10 19:00:00 25.1 17 Sudeste 34 Sudeste 0 -- -- 53
2017-08-10 18:00:00 25.5 21 Sudeste 34 Sudeste 0 -- -- 51
2017-08-10 17:00:00 26.1 19 Sudeste 31 Sudeste 0 -- -- 49
2017-08-10 16:00:00 26.4 12 Sudeste 24 Sudeste 0 -- -- 50
2017-08-10 15:00:00 25.7 8 Sudeste 21 Sudeste 0 -- -- 51
2017-08-10 14:00:00 24 3 Noroeste 12 Oeste 0 -- -- 54
2017-08-10 13:00:00 21.5 3 Oeste 9 Oeste 0 -- -- 60
2017-08-10 12:00:00 19.9 4 Oeste 10 Oeste 0 -- -- 74
2017-08-10 11:00:00 18.8 5 Oeste 12 Noroeste 0 -- -- 80
2017-08-10 10:00:00 18.5 3 Noroeste 20 Oeste 0 -- -- 82
2017-08-10 09:00:00 17.1 12 Oeste 26 Nordeste 0 -- -- 89
2017-08-10 08:00:00 17.4 14 Norte 25 Norte 1.2 -- -- 86
2017-08-10 07:00:00 17.9 9 Norte 24 Norte 2.9 -- -- 89
2017-08-10 06:00:00 18.9 9 Norte 27 Nordeste 0.4 -- -- 80
2017-08-10 05:00:00 20.5 12 Nordeste 34 Nordeste 0 -- -- 68
2017-08-10 04:00:00 20.7 18 Nordeste 36 Nordeste 0 -- -- 70
2017-08-10 03:00:00 21.2 15 Norte 33 Nordeste 0.1 -- -- 74
2017-08-10 02:00:00 21.2 18 Nordeste 39 Norte 0.6 -- -- 82
2017-08-10 01:00:00 23 14 Nordeste 29 Nordeste 0 -- -- 74
2017-08-10 00:00:00 24.9 5 Este 24 Este 0 -- -- 65
2017-08-09 23:00:00 25.5 13 Sudeste 30 Sudeste 0 -- -- 76
2017-08-09 22:00:00 25.6 19 Sudeste 40 Sudeste 0 -- -- 73
2017-08-09 21:00:00 26.3 23 Sudeste 44 Sudeste 0 -- -- 68
2017-08-09 20:00:00 27.7 25 Sudeste 47 Sudeste 0 -- -- 59
2017-08-09 19:00:00 29.2 25 Sudeste 49 Sudeste 0 -- -- 53
2017-08-09 18:00:00 30.8 26 Sudeste 53 Sudeste 0 -- -- 48
2017-08-09 17:00:00 33.8 8 Sudeste 18 Este 0 -- -- 31
2017-08-09 16:00:00 33.7 5 Nordeste 23 Sudeste 0 -- -- 32
2017-08-09 15:00:00 31.9 8 Sudeste 22 Sudeste 0 -- -- 34
2017-08-09 14:00:00 31.2 4 Sudeste 24 Sudeste 0 -- -- 38
2017-08-09 13:00:00 30 6 Sudeste 24 Este 0 -- -- 44
2017-08-09 12:00:00 29.1 0 Calma 15 Sudeste 0 -- -- 49
2017-08-09 11:00:00 26.4 3 Noroeste 10 Norte 0 -- -- 57
2017-08-09 10:00:00 24.5 0 Calma 7 Norte 0 -- -- 64
2017-08-09 09:00:00 23.1 2 Noroeste 13 Noroeste 0 -- -- 72
2017-08-09 08:00:00 22.3 0 Calma 12 Noroeste 0 -- -- 73
2017-08-09 07:00:00 22.7 0 Calma 8 Noroeste 0 -- -- 71
2017-08-09 06:00:00 23 0 Calma 4 Norte 0 -- -- 75
2017-08-09 05:00:00 22.6 0 Calma 6 Oeste 0 -- -- 82
2017-08-09 04:00:00 22.2 0 Calma 6 Este 0 -- -- 81
2017-08-09 03:00:00 23.2 6 Sudeste 13 Sudeste 0 -- -- 73
2017-08-09 02:00:00 23.7 9 Sudeste 23 Sudeste 0 -- -- 75
2017-08-09 01:00:00 24.2 15 Sudeste 25 Sudeste 0 -- -- 76
2017-08-09 00:00:00 24.5 16 Sudeste 24 Sudeste 0 -- -- 79
2017-08-08 23:00:00 25.1 13 Sudeste 29 Sudeste 0 -- -- 75
2017-08-08 22:00:00 26.3 19 Sudeste 32 Sudeste 0 -- -- 63
2017-08-08 21:00:00 27.5 20 Sudeste 38 Sudeste 0 -- -- 69
2017-08-08 20:00:00 29.5 23 Sudeste 37 Sudeste 0 -- -- 59
2017-08-08 19:00:00 31.7 21 Sudeste 39 Sudeste 0 -- -- 47
2017-08-08 18:00:00 33.7 23 Sudeste 40 Este 0 -- -- 33
2017-08-08 17:00:00 39.2 6 Noroeste 26 Norte 0 -- -- 13
2017-08-08 16:00:00 38.1 8 Noroeste 39 Norte 0 -- -- 13
2017-08-08 15:00:00 37.4 9 Oeste 20 Noroeste 0 -- -- 15
2017-08-08 14:00:00 36.6 7 Oeste 20 Oeste 0 -- -- 18
2017-08-08 13:00:00 34.7 5 Noroeste 21 Oeste 0 -- -- 21
2017-08-08 12:00:00 32.3 12 Oeste 22 Oeste 0 -- -- 28
2017-08-08 11:00:00 28.7 11 Oeste 22 Oeste 0 -- -- 41
2017-08-08 10:00:00 26 12 Oeste 18 Oeste 0 -- -- 63
2017-08-08 09:00:00 23.1 12 Oeste 22 Oeste 0 -- -- 90
2017-08-08 08:00:00 21.8 7 Oeste 13 Oeste 0 -- -- 92
2017-08-08 07:00:00 21.8 0 Calma 8 Este 0 -- -- 91
2017-08-08 06:00:00 22.4 4 Este 8 Sudeste 0 -- -- 92
2017-08-08 05:00:00 23.1 2 Este 5 Sudeste 0 -- -- 91
2017-08-08 04:00:00 23.4 0 Calma 6 Sudeste 0 -- -- 90
2017-08-08 03:00:00 24.4 3 Este 17 Sudeste 0 -- -- 88
2017-08-08 02:00:00 25.4 13 Sudeste 27 Sudeste 0 -- -- 82
2017-08-08 01:00:00 25.8 6 Este 19 Sudeste 0 -- -- 82
2017-08-08 00:00:00 26.5 12 Sudeste 26 Sudeste 0 -- -- 76
2017-08-07 23:00:00 26.8 15 Sudeste 27 Sudeste 0 -- -- 76
2017-08-07 22:00:00 27.6 7 Sur 11 Sudeste 0 -- -- 72
2017-08-07 21:00:00 28.6 6 Este 31 Sudeste 0 -- -- 70
2017-08-07 20:00:00 29.6 8 Sudeste 32 Sudeste 0 -- -- 67
2017-08-07 19:00:00 29.3 22 Sudeste 47 Sur 6.4 -- -- 68
2017-08-07 18:00:00 32.9 23 Sudeste 39 Sudeste 0 -- -- 44
2017-08-07 17:00:00 34.4 19 Sudeste 35 Sudeste 0 -- -- 41
2017-08-07 16:00:00 33.3 18 Sudeste 40 Sudeste 0 -- -- 44
2017-08-07 15:00:00 32.4 19 Sudeste 36 Sudeste 0 -- -- 45
2017-08-07 14:00:00 31.4 17 Sudeste 28 Sudeste 0 -- -- 50
2017-08-07 13:00:00 29.7 14 Sudeste 26 Sudeste 0 -- -- 55
2017-08-07 12:00:00 27.6 10 Sudeste 25 Sudeste 0 -- -- 64
2017-08-07 11:00:00 26.3 12 Sudeste 23 Sudeste 0 -- -- 71
2017-08-07 10:00:00 25 12 Sudeste 23 Sudeste 0 -- -- 81
2017-08-07 09:00:00 24.6 6 Este 14 Sur 0 -- -- 80
2017-08-07 08:00:00 23 2 Sudeste 8 Nordeste 0 -- -- 82
2017-08-07 07:00:00 22.5 3 Este 8 Este 0 -- -- 85
2017-08-07 06:00:00 22.6 3 Este 8 Este 0 -- -- 86
2017-08-07 05:00:00 22.9 3 Sudeste 7 Este 0 -- -- 91
2017-08-07 04:00:00 24.1 6 Sudeste 13 Sudeste 0 -- -- 91
2017-08-07 03:00:00 24.3 9 Sudeste 19 Sudeste 0 -- -- 90
2017-08-07 02:00:00 24.7 10 Sudeste 22 Sudeste 0 -- -- 88
2017-08-07 01:00:00 25.1 13 Sudeste 26 Sudeste 0 -- -- 87
2017-08-07 00:00:00 25.3 13 Sudeste 26 Sudeste 0 -- -- 85
2017-08-06 23:00:00 25.6 14 Sudeste 31 Sudeste 0 -- -- 80
2017-08-06 22:00:00 26.2 17 Sudeste 40 Sudeste 0 -- -- 76
2017-08-06 21:00:00 27 19 Sudeste 38 Sudeste 0 -- -- 72
2017-08-06 20:00:00 28.1 22 Sudeste 41 Este 0 -- -- 63
2017-08-06 19:00:00 29.5 23 Sudeste 41 Sudeste 0 -- -- 54
2017-08-06 18:00:00 30.5 25 Sudeste 45 Sudeste 0 -- -- 49
2017-08-06 17:00:00 31.2 25 Sudeste 45 Sudeste 0 -- -- 42
2017-08-06 16:00:00 32.6 21 Sudeste 45 Sudeste 0 -- -- 38
2017-08-06 15:00:00 32.8 23 Sudeste 44 Sudeste 0 -- -- 41
2017-08-06 14:00:00 32.3 21 Sudeste 42 Sudeste 0 -- -- 44
2017-08-06 13:00:00 31.8 19 Sudeste 39 Sudeste 0 -- -- 44
2017-08-06 12:00:00 30.4 20 Sudeste 35 Sudeste 0 -- -- 50
2017-08-06 11:00:00 29.1 9 Este 22 Sudeste 0 -- -- 53
2017-08-06 10:00:00 26.1 2 Este 7 Nordeste 0 -- -- 63
2017-08-06 09:00:00 24.8 3 Nordeste 7 Nordeste 0 -- -- 67
2017-08-06 08:00:00 21.7 0 Calma 4 Nordeste 0 -- -- 87
2017-08-06 07:00:00 22.2 0 Calma -- -- 0 -- -- 89
2017-08-06 06:00:00 23.7 2 Sudeste 9 Sudeste 0 -- -- 90
2017-08-06 05:00:00 23.7 0 Calma 23 Sudeste 0 -- -- 88
2017-08-06 04:00:00 25.1 13 Sudeste 21 Sudeste 0 -- -- 79
2017-08-06 03:00:00 25.5 6 Este 19 Sudeste 0 -- -- 63
2017-08-06 02:00:00 26.2 13 Sudeste 21 Sudeste 0 -- -- 58
2017-08-06 01:00:00 26.8 15 Sudeste 23 Sudeste 0 -- -- 55
2017-08-06 00:00:00 27.6 19 Sudeste 27 Sudeste 0 -- -- 50
2017-08-05 23:00:00 28.3 15 Sudeste 25 Sudeste 0 -- -- 50
2017-08-05 22:00:00 29.8 18 Sudeste 35 Sudeste 0 -- -- 46
2017-08-05 21:00:00 31.2 20 Sudeste 44 Sudeste 0 -- -- 43
2017-08-05 20:00:00 32.9 23 Sudeste 44 Sudeste 0 -- -- 40
2017-08-05 19:00:00 34.9 24 Sudeste 45 Sudeste 0 -- -- 38
2017-08-05 18:00:00 35.2 23 Sudeste 48 Sudeste 0 -- -- 41
2017-08-05 17:00:00 35.8 23 Sudeste 42 Sudeste 0 -- -- 41
2017-08-05 16:00:00 36.2 24 Sudeste 42 Sudeste 0 -- -- 39
2017-08-05 15:00:00 36.4 19 Sudeste 41 Sudeste 0 -- -- 38
2017-08-05 14:00:00 34.7 18 Sudeste 35 Sudeste 0 -- -- 39
2017-08-05 13:00:00 33.4 17 Sudeste 34 Sudeste 0 -- -- 40
2017-08-05 12:00:00 31.7 21 Sudeste 29 Este 0 -- -- 44
2017-08-05 11:00:00 29.8 8 Sudeste 15 Este 0 -- -- 54
2017-08-05 10:00:00 25.8 5 Oeste 11 Oeste 0 -- -- 62
2017-08-05 09:00:00 23.8 5 Noroeste 9 Oeste 0 -- -- 67
2017-08-05 08:00:00 22.2 2 Oeste 8 Oeste 0 -- -- 71
2017-08-05 07:00:00 22.1 0 Calma 6 Oeste 0 -- -- 68
2017-08-05 06:00:00 22.4 0 Calma 5 Este 0 -- -- 70
2017-08-05 05:00:00 22.5 3 Este 6 Sudeste 0 -- -- 69
2017-08-05 04:00:00 23.5 0 Calma 10 Este 0 -- -- 68
2017-08-05 03:00:00 23.6 3 Este 7 Sudeste 0 -- -- 57
2017-08-05 02:00:00 24.3 5 Sudeste 8 Sudeste 0 -- -- 58
2017-08-05 01:00:00 26.4 0 Calma 9 Este 0 -- -- 53
2017-08-05 00:00:00 28 0 Calma 16 Sudeste 0 -- -- 48
2017-08-04 23:00:00 29.8 8 Sudeste 20 Sudeste 0 -- -- 42
2017-08-04 22:00:00 30.6 10 Sudeste 30 Sudeste 0 -- -- 39
2017-08-04 21:00:00 32.1 19 Sudeste 30 Sudeste 0 -- -- 38
2017-08-04 20:00:00 33.5 20 Sudeste 39 Sudeste 0 -- -- 38
2017-08-04 19:00:00 34.7 23 Sudeste 42 Sudeste 0 -- -- 35
2017-08-04 18:00:00 36 22 Sudeste 41 Sudeste 0 -- -- 36
2017-08-04 17:00:00 36.5 20 Sudeste 41 Sudeste 0 -- -- 38
2017-08-04 16:00:00 36 21 Sudeste 40 Sudeste 0 -- -- 38
2017-08-04 15:00:00 37 19 Sudeste 31 Sudeste 0 -- -- 35
2017-08-04 14:00:00 36.5 17 Sudeste 33 Sudeste 0 -- -- 37
2017-08-04 13:00:00 35.8 15 Sudeste 29 Sudeste 0 -- -- 37
2017-08-04 12:00:00 34.3 6 Sudeste 17 Oeste 0 -- -- 38
2017-08-04 11:00:00 31 9 Oeste 20 Oeste 0 -- -- 43
2017-08-04 10:00:00 27.8 11 Oeste 19 Oeste 0 -- -- 53
2017-08-04 09:00:00 25.5 9 Oeste 17 Oeste 0 -- -- 63
2017-08-04 08:00:00 23.7 10 Oeste 13 Noroeste 0 -- -- 73
2017-08-04 07:00:00 23.4 8 Oeste 12 Oeste 0 -- -- 75
2017-08-04 06:00:00 23.5 7 Oeste 16 Oeste 0 -- -- 76
2017-08-04 05:00:00 24 8 Oeste 9 Oeste 0 -- -- 76
2017-08-04 04:00:00 25.2 4 Oeste 6 Oeste 0 -- -- 71
2017-08-04 03:00:00 25.3 0 Calma 6 Este 0 -- -- 69
2017-08-04 02:00:00 26 0 Calma 7 Este 0 -- -- 66
2017-08-04 01:00:00 27.9 0 Calma 12 Sudeste 0 -- -- 59
2017-08-04 00:00:00 29.2 8 Sudeste 17 Sudeste 0 -- -- 56
2017-08-03 23:00:00 29.6 13 Sudeste 21 Sudeste 0 -- -- 54
2017-08-03 22:00:00 30.2 14 Sudeste 27 Sudeste 0 -- -- 53
2017-08-03 21:00:00 31.6 17 Sudeste 42 Sudeste 0 -- -- 49
2017-08-03 20:00:00 33.2 23 Sudeste 41 Este 0 -- -- 45
2017-08-03 19:00:00 35.8 26 Sudeste 42 Este 0 -- -- 38
2017-08-03 18:00:00 40.2 0 Calma 18 Oeste 0 -- -- 19
2017-08-03 17:00:00 39.9 8 Oeste 25 Oeste 0 -- -- 20
2017-08-03 16:00:00 39.4 4 Oeste 19 Oeste 0 -- -- 20
2017-08-03 15:00:00 38.5 2 Noroeste 15 Oeste 0 -- -- 24
2017-08-03 14:00:00 36.2 3 Noroeste 16 Oeste 0 -- -- 31
2017-08-03 13:00:00 33.7 9 Oeste 18 Oeste 0 -- -- 39
2017-08-03 12:00:00 31.6 12 Oeste 19 Oeste 0 -- -- 46
2017-08-03 11:00:00 28.9 11 Oeste 19 Oeste 0 -- -- 57
2017-08-03 10:00:00 26.4 10 Oeste 18 Oeste 0 -- -- 67
2017-08-03 09:00:00 24.1 10 Oeste 15 Oeste 0 -- -- 77
2017-08-03 08:00:00 22.3 4 Oeste 9 Oeste 0 -- -- 87
2017-08-03 07:00:00 22.6 3 Oeste 12 Oeste 0 -- -- 85
2017-08-03 06:00:00 22.8 4 Noroeste 13 Oeste 0 -- -- 86
2017-08-03 05:00:00 23.3 5 Oeste 9 Noroeste 0 -- -- 84
2017-08-03 04:00:00 23.4 4 Oeste 9 Oeste 0 -- -- 82
2017-08-03 03:00:00 23.3 3 Sudeste 6 Sudeste 0 -- -- 79
2017-08-03 02:00:00 24.8 2 Sudeste 6 Nordeste 0 -- -- 73
2017-08-03 01:00:00 25.8 2 Este 9 Sudeste 0 -- -- 71
2017-08-03 00:00:00 27.1 6 Sudeste 19 Sudeste 0 -- -- 65
2017-08-02 23:00:00 28 9 Sudeste 24 Sudeste 0 -- -- 61
2017-08-02 22:00:00 28.7 16 Sudeste 27 Sudeste 0 -- -- 56
2017-08-02 21:00:00 30 18 Sudeste 37 Sudeste 0 -- -- 50
2017-08-02 20:00:00 31.4 19 Sudeste 32 Sudeste 0 -- -- 44
2017-08-02 19:00:00 33.2 19 Sudeste 33 Sudeste 0 -- -- 38
2017-08-02 18:00:00 33.7 18 Este 34 Este 0 -- -- 40
2017-08-02 17:00:00 32.7 18 Sudeste 32 Sudeste 0 -- -- 41
2017-08-02 16:00:00 32.9 16 Sudeste 36 Sudeste 0 -- -- 43
2017-08-02 15:00:00 33.4 20 Este 38 Sudeste 0 -- -- 44
2017-08-02 14:00:00 31.7 17 Sudeste 32 Sudeste 0 -- -- 47
2017-08-02 13:00:00 30 9 Este 19 Este 0 -- -- 54
2017-08-02 12:00:00 29.9 4 Nordeste 9 Nordeste 0 -- -- 53
2017-08-02 11:00:00 27 3 Noroeste 12 Oeste 0 -- -- 63
2017-08-02 10:00:00 25.1 4 Oeste 15 Noroeste 0 -- -- 74
2017-08-02 09:00:00 24.7 6 Oeste 15 Noroeste 0 -- -- 79
2017-08-02 08:00:00 24.1 5 Oeste 13 Oeste 0 -- -- 83
2017-08-02 07:00:00 24.7 6 Oeste 11 Oeste 0 -- -- 79
2017-08-02 06:00:00 26.3 8 Sudeste 41 Este 0 -- -- 69
2017-08-02 05:00:00 25.2 5 Nordeste 30 Sudeste 0 -- -- 80
2017-08-02 04:00:00 25.5 11 Sudeste 27 Sudeste 0 -- -- 82
2017-08-02 03:00:00 26.8 9 Este 26 Sudeste 0 -- -- 66
2017-08-02 02:00:00 27 11 Sudeste 26 Sudeste 0 -- -- 63
2017-08-02 01:00:00 27.4 13 Sudeste 24 Sudeste 0 -- -- 60
2017-08-02 00:00:00 26.6 22 Sudeste 37 Sudeste 0 -- -- 71
2017-08-01 23:00:00 26.5 9 Sudeste 36 Sudeste 0 -- -- 74
2017-08-01 22:00:00 26.7 19 Sudeste 50 Sudeste 0 -- -- 73
2017-08-01 21:00:00 27 30 Sudeste 56 Sudeste 0 -- -- 73
2017-08-01 20:00:00 28 32 Sudeste 59 Sudeste 0 -- -- 67
2017-08-01 19:00:00 29.5 13 Sudeste 32 Sudeste 0 -- -- 66
2017-08-01 18:00:00 30 21 Sudeste 35 Sudeste 0 -- -- 60
2017-08-01 17:00:00 31.4 20 Sudeste 37 Sudeste 0 -- -- 53
2017-08-01 16:00:00 34.5 9 Este 19 Sudeste 0 -- -- 40
2017-08-01 15:00:00 32.1 3 Sudeste 13 Oeste 0 -- -- 46
2017-08-01 14:00:00 30.3 3 Oeste 19 Oeste 0 -- -- 55
2017-08-01 13:00:00 29.2 10 Oeste 29 Este 0 -- -- 60
2017-08-01 12:00:00 29 3 Noroeste 14 Sudoeste 0 -- -- 59
2017-08-01 11:00:00 28 8 Oeste 17 Oeste 0 -- -- 65
2017-08-01 10:00:00 25.5 10 Oeste 20 Noroeste 0 -- -- 75
2017-08-01 09:00:00 23.9 6 Oeste 11 Oeste 0 -- -- 82
2017-08-01 08:00:00 22.8 0 Calma 8 Sudeste 0 -- -- 83
2017-08-01 07:00:00 22.6 0 Calma 9 Oeste 0 -- -- 87
2017-08-01 06:00:00 23 0 Calma 8 Este 0 -- -- 86
2017-08-01 05:00:00 23.6 5 Sudeste 11 Sudeste 0 -- -- 86
2017-08-01 04:00:00 23.5 4 Este 13 Sudeste 0 -- -- 82
2017-08-01 03:00:00 24.2 0 Calma 3 Nordeste 0 -- -- 78
2017-08-01 02:00:00 24.8 2 Este 9 Sudeste 0 -- -- 78
2017-08-01 01:00:00 25.2 5 Sudeste 16 Sudeste 0 -- -- 78
2017-08-01 00:00:00 25.3 12 Sudeste 38 Sudeste 0 -- -- 80
2017-07-31 23:00:00 25.5 18 Sudeste 37 Sudeste 0 -- -- 80
2017-07-31 22:00:00 26.5 21 Sudeste 40 Sudeste 0 -- -- 75
2017-07-31 21:00:00 28 22 Sudeste 41 Sudeste 0 -- -- 61
2017-07-31 20:00:00 30.1 22 Sudeste 39 Sudeste 0 -- -- 48
2017-07-31 19:00:00 32.3 18 Sudeste 33 Este 0 -- -- 45
2017-07-31 18:00:00 33.4 16 Este 36 Sudeste 0 -- -- 44
2017-07-31 17:00:00 33.9 19 Sudeste 39 Sudeste 0 -- -- 43
2017-07-31 16:00:00 33.4 23 Sudeste 40 Sudeste 0 -- -- 44
2017-07-31 15:00:00 32.7 21 Sudeste 37 Sudeste 0 -- -- 44
2017-07-31 14:00:00 32.5 22 Sudeste 36 Este 0 -- -- 41
2017-07-31 13:00:00 31.1 19 Sudeste 41 Sudeste 0 -- -- 38
2017-07-31 12:00:00 30.3 15 Sudeste 28 Este 0 -- -- 38
2017-07-31 11:00:00 29.7 9 Sudeste 20 Sudeste 0 -- -- 43
2017-07-31 10:00:00 25 5 Oeste 13 Oeste 0 -- -- 66
2017-07-31 09:00:00 22.5 6 Oeste 11 Oeste 0 -- -- 73
2017-07-31 08:00:00 20.9 8 Oeste 12 Noroeste 0 -- -- 78
2017-07-31 07:00:00 20.3 0 Calma 14 Oeste 0 -- -- 75
2017-07-31 06:00:00 22 7 Oeste 10 Oeste 0 -- -- 75
2017-07-31 05:00:00 21.9 4 Oeste 8 Oeste 0 -- -- 62
2017-07-31 04:00:00 22.1 0 Calma 4 Este 0 -- -- 61
2017-07-31 03:00:00 24.3 2 Este 27 Sudeste 0 -- -- 57
2017-07-31 02:00:00 25.1 12 Sudeste 24 Sudeste 0 -- -- 55
2017-07-31 01:00:00 24.7 13 Sudeste 26 Sudeste 0 -- -- 78
2017-07-31 00:00:00 26.8 15 Sudeste 25 Sudeste 0 -- -- 65
2017-07-30 23:00:00 27.6 8 Sudeste 23 Sudeste 0 -- -- 63
2017-07-30 22:00:00 28.2 12 Sudeste 31 Sudeste 0 -- -- 60
2017-07-30 21:00:00 30 20 Sudeste 33 Sudeste 0 -- -- 47
2017-07-30 20:00:00 32.7 19 Sudeste 40 Este 0 -- -- 41
2017-07-30 19:00:00 34.2 24 Sudeste 42 Sudeste 0 -- -- 38
2017-07-30 18:00:00 36.1 25 Sudeste 46 Este 0 -- -- 35
2017-07-30 17:00:00 37.5 26 Este 45 Este 0 -- -- 32
2017-07-30 16:00:00 39.3 18 Sudeste 36 Sudeste 0 -- -- 22
2017-07-30 15:00:00 38.5 17 Sudeste 35 Sudeste 0 -- -- 23
2017-07-30 14:00:00 38 12 Este 25 Sudeste 0 -- -- 24
2017-07-30 13:00:00 35.9 6 Sudeste 15 Este 0 -- -- 31
2017-07-30 12:00:00 33.2 3 Nordeste 9 Norte 0 -- -- 39
2017-07-30 11:00:00 28.3 4 Oeste 17 Oeste 0 -- -- 50
2017-07-30 10:00:00 25.4 10 Oeste 17 Oeste 0 -- -- 58
2017-07-30 09:00:00 22.3 10 Oeste 17 Oeste 0 -- -- 67
2017-07-30 08:00:00 19.8 8 Oeste 11 Noroeste 0 -- -- 76
2017-07-30 07:00:00 20.7 5 Oeste 12 Oeste 0 -- -- 73
2017-07-30 06:00:00 20.2 0 Calma 9 Oeste 0 -- -- 72
2017-07-30 05:00:00 22.3 6 Oeste 9 Oeste 0 -- -- 67
2017-07-30 04:00:00 21.9 0 Calma -- -- 0 -- -- 66
2017-07-30 03:00:00 23.1 0 Calma 5 Este 0 -- -- 63
2017-07-30 02:00:00 23.8 3 Este 6 Este 0 -- -- 59
2017-07-30 01:00:00 24.9 0 Calma 6 Este 0 -- -- 53
2017-07-30 00:00:00 26.7 5 Este 16 Sudeste 0 -- -- 49
2017-07-29 23:00:00 27.6 10 Sudeste 23 Sudeste 0 -- -- 46
2017-07-29 22:00:00 28.7 15 Sudeste 27 Sudeste 0 -- -- 44
2017-07-29 21:00:00 30.1 16 Sudeste 32 Este 0 -- -- 42
2017-07-29 20:00:00 32 20 Sudeste 40 Sudeste 0 -- -- 41
2017-07-29 19:00:00 33.1 21 Sudeste 39 Sudeste 0 -- -- 41
2017-07-29 18:00:00 34.1 23 Sudeste 39 Este 0 -- -- 40
2017-07-29 17:00:00 34.8 20 Sudeste 41 Sudeste 0 -- -- 40
2017-07-29 16:00:00 35.4 19 Sudeste 39 Sudeste 0 -- -- 37
2017-07-29 15:00:00 35.7 16 Sudeste 33 Este 0 -- -- 34
2017-07-29 14:00:00 34.6 14 Sudeste 30 Sudeste 0 -- -- 33
2017-07-29 13:00:00 32.8 11 Sudeste 26 Sudeste 0 -- -- 35
2017-07-29 12:00:00 31.3 9 Este 19 Sudeste 0 -- -- 39
2017-07-29 11:00:00 28.4 0 Calma 9 Norte 0 -- -- 45
2017-07-29 10:00:00 23.8 4 Noroeste 11 Oeste 0 -- -- 54
2017-07-29 09:00:00 21.9 4 Oeste 9 Noroeste 0 -- -- 62
2017-07-29 08:00:00 19.8 2 Noroeste 7 Oeste 0 -- -- 69
2017-07-29 07:00:00 20.1 8 Oeste 10 Oeste 0 -- -- 67
2017-07-29 06:00:00 21.2 5 Oeste 9 Oeste 0 -- -- 62
2017-07-29 05:00:00 21.7 6 Oeste 8 Oeste 0 -- -- 69
2017-07-29 04:00:00 21.8 0 Calma 4 Nordeste 0 -- -- 67
2017-07-29 03:00:00 22.9 2 Este 5 Este 0 -- -- 64
2017-07-29 02:00:00 23.7 2 Este 5 Este 0 -- -- 58
2017-07-29 01:00:00 24.5 0 Calma 4 Nordeste 0 -- -- 48
2017-07-29 00:00:00 27.1 3 Sudeste 17 Sudeste 0 -- -- 40
2017-07-28 23:00:00 27.7 13 Sudeste 23 Sudeste 0 -- -- 41
2017-07-28 22:00:00 28.4 15 Sudeste 27 Sudeste 0 -- -- 38
2017-07-28 21:00:00 29.7 18 Sudeste -- -- -- -- -- 36
2017-07-28 20:00:00 31.2 21 Sudeste 40 Sudeste 0 -- -- 35
2017-07-28 19:00:00 32.6 23 Sudeste 44 Este 0 -- -- 35
2017-07-28 18:00:00 33.6 26 Sudeste 45 Este 0 -- -- 33
2017-07-28 17:00:00 35.9 23 Sudeste 40 Sudeste 0 -- -- 31
2017-07-28 16:00:00 36.5 21 Sudeste 41 Sudeste 0 -- -- 28
2017-07-28 15:00:00 37.5 19 Este 39 Sudeste 0 -- -- 25
2017-07-28 14:00:00 36.2 17 Sudeste 32 Sudeste 0 -- -- 28
2017-07-28 13:00:00 35 10 Sudeste 21 Sudeste 0 -- -- 28
2017-07-28 12:00:00 33 4 Este 12 Oeste 0 -- -- 34
2017-07-28 11:00:00 28.1 8 Oeste 16 Oeste 0 -- -- 46
2017-07-28 10:00:00 25.1 12 Oeste 17 Oeste 0 -- -- 54
2017-07-28 09:00:00 22.5 11 Oeste 15 Oeste 0 -- -- 62
2017-07-28 08:00:00 20.3 6 Oeste 13 Oeste 0 -- -- 73
2017-07-28 07:00:00 19.9 7 Oeste 11 Oeste 0 -- -- 72
2017-07-28 06:00:00 20.9 3 Oeste 5 Oeste 0 -- -- 78
2017-07-28 05:00:00 20.5 0 Calma -- -- 0 -- -- 75
2017-07-28 04:00:00 21.9 0 Calma -- -- 0 -- -- 74
2017-07-28 03:00:00 22.6 0 Calma -- -- 0 -- -- 70
2017-07-28 02:00:00 23.3 0 Calma 8 Este 0 -- -- 66
2017-07-28 01:00:00 24.5 4 Este 17 Sudeste 0 -- -- 60
2017-07-28 00:00:00 26.3 12 Sudeste 19 Sudeste 0 -- -- 51
2017-07-27 23:00:00 27.5 10 Sudeste 28 Sudeste 0 -- -- 48
2017-07-27 22:00:00 28.6 19 Sudeste 32 Sudeste 0 -- -- 44
2017-07-27 21:00:00 30.6 22 Sudeste 35 Sudeste 0 -- -- 35
2017-07-27 20:00:00 33 23 Sudeste 37 Sudeste 0 -- -- 28
2017-07-27 19:00:00 34.7 22 Sudeste 39 Sudeste 0 -- -- 26
2017-07-27 18:00:00 35.9 20 Sudeste 40 Sudeste 0 -- -- 25
2017-07-27 17:00:00 36 20 Sudeste 41 Sudeste 0 -- -- 26
2017-07-27 16:00:00 35 18 Sudeste 39 Este 0 -- -- 29
2017-07-27 15:00:00 33.8 17 Sudeste 32 Sudeste 0 -- -- 32
2017-07-27 14:00:00 32.6 18 Sudeste 35 Sudeste 0 -- -- 36
2017-07-27 13:00:00 30.6 17 Este 31 Sudeste 0 -- -- 43
2017-07-27 12:00:00 30.1 13 Este 26 Sudeste 0 -- -- 48
2017-07-27 11:00:00 27.3 5 Sudeste 14 Sudeste 0 -- -- 60
2017-07-27 10:00:00 25 2 Sudeste 10 Este 0 -- -- 70
2017-07-27 09:00:00 23.7 0 Calma 6 Este 0 -- -- 76
2017-07-27 08:00:00 20.6 0 Calma 5 Este 0 -- -- 89
2017-07-27 07:00:00 20.9 0 Calma 5 Sudeste 0 -- -- 90
2017-07-27 06:00:00 22 5 Sudeste 15 Sudeste 0 -- -- 90
2017-07-27 05:00:00 22.5 9 Sudeste 16 Sudeste 0 -- -- 88
2017-07-27 04:00:00 22.8 7 Sudeste 20 Sudeste 0 -- -- 87
2017-07-27 03:00:00 23.3 9 Sudeste 18 Sudeste 0 -- -- 83
2017-07-27 02:00:00 24 10 Sudeste 17 Sudeste 0 -- -- 76
2017-07-27 01:00:00 24.2 11 Sudeste 18 Sudeste 0 -- -- 77
2017-07-27 00:00:00 24.7 11 Sudeste 22 Sudeste 0 -- -- 76
2017-07-26 23:00:00 25.4 16 Sudeste 30 Sudeste 0 -- -- 73
2017-07-26 22:00:00 26.3 16 Sudeste 36 Sudeste 0 -- -- 68
2017-07-26 21:00:00 27.7 20 Sudeste 39 Sudeste 0 -- -- 60
2017-07-26 20:00:00 29.9 24 Sudeste 46 Sudeste 0 -- -- 50
2017-07-26 19:00:00 31.7 23 Este 50 Sudeste 0 -- -- 45
2017-07-26 18:00:00 33.5 22 Sudeste 42 Sudeste 0 -- -- 37
2017-07-26 17:00:00 35.8 6 Sudeste 21 Este 0 -- -- 28
2017-07-26 16:00:00 34.5 9 Sudeste 21 Sudeste 0 -- -- 30
2017-07-26 15:00:00 33.2 6 Este 18 Sudeste 0 -- -- 32
2017-07-26 14:00:00 32.1 3 Este 20 Sudeste 0 -- -- 38
2017-07-26 13:00:00 30.5 9 Sudeste 19 Sudeste 0 -- -- 42
2017-07-26 12:00:00 28.9 2 Sudeste 13 Sudeste 0 -- -- 47
2017-07-26 11:00:00 27.1 2 Noroeste 12 Oeste 0 -- -- 57
2017-07-26 10:00:00 25.2 3 Norte 9 Norte 0 -- -- 64
2017-07-26 09:00:00 24.1 0 Calma 6 Este 0 -- -- 73
2017-07-26 08:00:00 23.2 0 Calma 5 Este 0 -- -- 75
2017-07-26 07:00:00 22.8 0 Calma -- -- 0 -- -- 75
2017-07-26 06:00:00 22.9 0 Calma 5 Este 0 -- -- 75
2017-07-26 05:00:00 22.9 3 Sudeste 8 Sudeste 0 -- -- 76
2017-07-26 04:00:00 22.8 6 Sudeste 13 Sudeste 0 -- -- 75
2017-07-26 03:00:00 22.6 7 Sudeste 13 Sudeste 0 -- -- 78
2017-07-26 02:00:00 22.6 10 Sudeste 17 Sudeste 0 -- -- 80
2017-07-26 01:00:00 22.8 11 Sudeste 24 Sudeste 0 -- -- 81
2017-07-26 00:00:00 23 14 Sudeste 28 Sudeste 0 -- -- 78
2017-07-25 23:00:00 23.5 18 Sudeste 32 Este 0 -- -- 77
2017-07-25 22:00:00 24.3 17 Sudeste 39 Sudeste 0 -- -- 71
2017-07-25 21:00:00 25.4 21 Sudeste 47 Sudeste 0 -- -- 65
2017-07-25 20:00:00 26.9 27 Sudeste 45 Este 0 -- -- 57
2017-07-25 19:00:00 29.4 22 Sudeste 47 Sudeste 0 -- -- 47
2017-07-25 18:00:00 29.9 24 Sudeste 41 Este 0 -- -- 45
2017-07-25 17:00:00 31.1 19 Sudeste 37 Sudeste 0 -- -- 41
2017-07-25 16:00:00 30.6 20 Sudeste 38 Sudeste 0 -- -- 41
2017-07-25 15:00:00 30.9 18 Sudeste 36 Sudeste 0 -- -- 42
2017-07-25 14:00:00 29.7 16 Sudeste 37 Sudeste 0 -- -- 45
2017-07-25 13:00:00 29.2 12 Sudeste 27 Sudeste 0 -- -- 48
2017-07-25 12:00:00 28 12 Sudeste 24 Este 0 -- -- 50
2017-07-25 11:00:00 27.3 5 Sudeste 21 Sudeste 0 -- -- 56
2017-07-25 10:00:00 24.3 5 Oeste 10 Oeste 0 -- -- 64
2017-07-25 09:00:00 22.4 2 Sudoeste 9 Oeste 0 -- -- 72
2017-07-25 08:00:00 20.7 2 Oeste 10 Oeste 0 -- -- 86
2017-07-25 07:00:00 20.1 5 Oeste 10 Oeste 0 -- -- 86
2017-07-25 06:00:00 20.7 8 Oeste 11 Oeste 0 -- -- 86
2017-07-25 05:00:00 21.4 0 Calma 3 Este 0 -- -- 89
2017-07-25 04:00:00 22 0 Calma 11 Sudeste 0 -- -- 87
2017-07-25 03:00:00 22.6 4 Este 14 Sudeste 0 -- -- 84
2017-07-25 02:00:00 23 6 Este 14 Sudeste 0 -- -- 76
2017-07-25 01:00:00 24 6 Este 18 Sudeste 0 -- -- 65
2017-07-25 00:00:00 25.2 10 Sudeste 18 Sudeste 0 -- -- 57
2017-07-24 23:00:00 25.5 13 Sudeste 26 Sudeste 0 -- -- 54
2017-07-24 22:00:00 26.3 17 Sudeste 28 Sudeste 0 -- -- 48
2017-07-24 21:00:00 27.5 19 Sudeste 32 Sudeste 0 -- -- 45
2017-07-24 20:00:00 29.1 19 Sudeste 46 Sudeste 0 -- -- 43
2017-07-24 19:00:00 30.5 26 Sudeste 49 Sudeste 0 -- -- 41
2017-07-24 18:00:00 32 26 Sudeste 45 Este 0 -- -- 41
2017-07-24 17:00:00 33.1 23 Sudeste 42 Este 0 -- -- 38
2017-07-24 16:00:00 35.2 19 Sudeste 31 Sudeste 0 -- -- 30
2017-07-24 15:00:00 35.1 13 Este 26 Este 0 -- -- 29
2017-07-24 14:00:00 33.8 14 Sudeste 28 Sudeste 0 -- -- 31
2017-07-24 13:00:00 33.2 8 Sudeste 19 Este 0 -- -- 29
2017-07-24 12:00:00 31 6 Este 17 Este 0 -- -- 36
2017-07-24 11:00:00 27.3 0 Calma 13 Oeste 0 -- -- 47
2017-07-24 10:00:00 23.9 9 Oeste 15 Noroeste 0 -- -- 63
2017-07-24 09:00:00 21.4 10 Oeste 15 Oeste 0 -- -- 70
2017-07-24 08:00:00 19.2 9 Oeste 15 Oeste 0 -- -- 73
2017-07-24 07:00:00 18.7 9 Oeste 14 Noroeste 0 -- -- 75
2017-07-24 06:00:00 19.4 4 Norte 8 Oeste 0 -- -- 78
2017-07-24 05:00:00 20 0 Calma 5 Oeste 0 -- -- 79
2017-07-24 04:00:00 20.2 0 Calma -- -- 0 -- -- 73
2017-07-24 03:00:00 21 0 Calma -- -- 0 -- -- 67
2017-07-24 02:00:00 22.3 0 Calma 8 Sudeste 0 -- -- 61
2017-07-24 01:00:00 23.1 4 Este 17 Sudeste 0 -- -- 70
2017-07-24 00:00:00 24.3 12 Sudeste 26 Sudeste 0 -- -- 70
2017-07-23 23:00:00 25.1 17 Sudeste 33 Sudeste 0 -- -- 64
2017-07-23 22:00:00 26.4 17 Sudeste 39 Sudeste 0 -- -- 48
2017-07-23 21:00:00 28.4 24 Sudeste 40 Sudeste 0 -- -- 39
2017-07-23 20:00:00 31 22 Sudeste 36 Sudeste 0 -- -- 36
2017-07-23 19:00:00 32.8 18 Sudeste 32 Este 0 -- -- 34
2017-07-23 18:00:00 33.2 19 Sudeste 33 Sudeste 0 -- -- 34
2017-07-23 17:00:00 33.3 17 Sudeste 33 Sudeste 0 -- -- 34
2017-07-23 16:00:00 32.9 16 Este 28 Sudeste 0 -- -- 31
2017-07-23 15:00:00 31.9 17 Sudeste 36 Este 0 -- -- 31
2017-07-23 14:00:00 31.3 14 Sudeste 28 Este 0 -- -- 32
2017-07-23 13:00:00 30.2 15 Sudeste 27 Sudeste 0 -- -- 32
2017-07-23 12:00:00 29.1 15 Sudeste 30 Sudeste 0 -- -- 39
2017-07-23 11:00:00 27.4 14 Sudeste 23 Sudeste 0 -- -- 48
2017-07-23 10:00:00 24.5 3 Nordeste 11 Noroeste 0 -- -- 62
2017-07-23 09:00:00 22.6 3 Oeste 7 Oeste 0 -- -- 70
2017-07-23 08:00:00 21.9 0 Calma 9 Oeste 0 -- -- 73
2017-07-23 07:00:00 21.3 0 Calma 4 Norte 0 -- -- 72
2017-07-23 06:00:00 21 0 Calma 7 Sudeste 0 -- -- 71
2017-07-23 05:00:00 21.3 0 Calma 7 Sudeste 0 -- -- 69
2017-07-23 04:00:00 22.3 2 Este 12 Oeste 0 -- -- 69
2017-07-23 03:00:00 22.2 6 Oeste 11 Noroeste 0 -- -- 72
2017-07-23 02:00:00 22.8 0 Calma 18 Sudeste 0 -- -- 70
2017-07-23 01:00:00 23.5 14 Sudeste 26 Sudeste 0 -- -- 70
2017-07-23 00:00:00 23.8 16 Sudeste 25 Sudeste 0 -- -- 70
2017-07-22 23:00:00 24.4 15 Sudeste 36 Sudeste 0 -- -- 67
2017-07-22 22:00:00 25.7 19 Sudeste 35 Sudeste 0 -- -- 54
2017-07-22 21:00:00 27.4 24 Sudeste 40 Sudeste 0 -- -- 49
2017-07-22 20:00:00 29.1 18 Sudeste 34 Sudeste 0 -- -- 43
2017-07-22 19:00:00 31 19 Sudeste 36 Este 0 -- -- 37
2017-07-22 18:00:00 32.7 18 Sudeste 32 Este 0 -- -- 34
2017-07-22 17:00:00 33 18 Este 34 Sudeste 0 -- -- 34
2017-07-22 16:00:00 32.9 15 Sudeste 35 Este 0 -- -- 35
2017-07-22 15:00:00 32.2 14 Sudeste 30 Sudeste 0 -- -- 34
2017-07-22 14:00:00 30.9 14 Sudeste 33 Sudeste 0 -- -- 35
2017-07-22 13:00:00 29.8 15 Sudeste 30 Sudeste 0 -- -- 46
2017-07-22 12:00:00 29 11 Sudeste 22 Sudeste 0 -- -- 48
2017-07-22 11:00:00 27.3 10 Sudeste 20 Sudeste 0 -- -- 52
2017-07-22 10:00:00 25.3 2 Norte 8 Norte 0 -- -- 62
2017-07-22 09:00:00 23.6 0 Calma 3 Sudeste 0 -- -- 70
2017-07-22 08:00:00 20.7 0 Calma -- -- -- -- -- 79
2017-07-22 07:00:00 20.8 6 Oeste 13 Oeste 0 -- -- 83
2017-07-22 06:00:00 21.3 0 Calma 13 Oeste 0 -- -- 82
2017-07-22 05:00:00 22 7 Oeste 9 Oeste 0 -- -- 82
2017-07-22 04:00:00 22.2 0 Calma 5 Sudeste 0 -- -- 82
2017-07-22 03:00:00 22.8 4 Sudeste 23 Sudeste 0 -- -- 77
2017-07-22 02:00:00 23.8 12 Sudeste 20 Sudeste 0 -- -- 72
2017-07-22 01:00:00 24.4 7 Sur 18 Sudeste 0 -- -- 63
2017-07-22 00:00:00 24.9 12 Sudeste 23 Sudeste 0 -- -- 59
2017-07-21 23:00:00 25.6 15 Sudeste 28 Sudeste 0 -- -- 57
2017-07-21 22:00:00 26.2 17 Sudeste 33 Este 0 -- -- 53
2017-07-21 21:00:00 27.6 22 Sudeste 42 Este 0 -- -- 47
2017-07-21 20:00:00 29.3 23 Sudeste 41 Sudeste 0 -- -- 44
2017-07-21 19:00:00 30.6 23 Sudeste 40 Sudeste 0 -- -- 42
2017-07-21 18:00:00 32.5 20 Sudeste 37 Sudeste 0 -- -- 37
2017-07-21 17:00:00 33.3 13 Este 28 Sudeste 0 -- -- 33
2017-07-21 16:00:00 32.8 12 Sudeste 30 Sudeste 0 -- -- 35
2017-07-21 15:00:00 32.1 9 Este 26 Sudeste 0 -- -- 38
2017-07-21 14:00:00 30.8 8 Este 24 Este 0 -- -- 42
2017-07-21 13:00:00 29.4 6 Sudeste 22 Sudeste 0 -- -- 46
2017-07-21 12:00:00 28.3 6 Sudeste 21 Sur 0 -- -- 49
2017-07-21 11:00:00 26.2 5 Sur 14 Sudeste 0 -- -- 61
2017-07-21 10:00:00 25.6 3 Nordeste 10 Este 0 -- -- 66
2017-07-21 09:00:00 23.5 0 Calma 5 Sudeste 0 -- -- 84
2017-07-21 08:00:00 22.6 0 Calma 8 Oeste 0 -- -- 89
2017-07-21 07:00:00 22.2 5 Oeste 8 Oeste 0 -- -- 91
2017-07-21 06:00:00 22 0 Calma 5 Nordeste 0 -- -- 90
2017-07-21 05:00:00 22.8 0 Calma 15 Sudeste 0 -- -- 90
2017-07-21 04:00:00 23.1 6 Este 22 Sudeste 0 -- -- 88
2017-07-21 03:00:00 23.3 14 Sudeste 26 Sudeste 0 -- -- 86
2017-07-21 02:00:00 23.5 13 Sudeste 22 Sudeste 0 -- -- 88
2017-07-21 01:00:00 23.7 9 Sudeste 21 Sur 0 -- -- 87
2017-07-21 00:00:00 24.2 15 Sudeste 24 Sudeste 0 -- -- 84
2017-07-20 23:00:00 24.7 17 Sudeste 28 Sudeste 0 -- -- 81
2017-07-20 22:00:00 25.3 17 Sudeste 37 Sudeste 0 -- -- 76
2017-07-20 21:00:00 26.5 22 Sudeste 44 Sudeste 0 -- -- 66
2017-07-20 20:00:00 28.4 23 Sudeste 42 Sudeste 0 -- -- 52
2017-07-20 19:00:00 29.4 25 Sudeste 44 Sudeste 0 -- -- 44
2017-07-20 18:00:00 30.8 26 Sudeste 49 Este 0 -- -- 41
2017-07-20 17:00:00 31.7 26 Sudeste 44 Sudeste 0 -- -- 38
2017-07-20 16:00:00 32.3 25 Sudeste 52 Sudeste 0 -- -- 37
2017-07-20 15:00:00 34.7 18 Este 33 Sudeste 0 -- -- 28
2017-07-20 14:00:00 34.5 8 Sudeste 24 Sudeste 0 -- -- 22
2017-07-20 13:00:00 33.4 4 Noroeste 18 Oeste 0 -- -- 25
2017-07-20 12:00:00 31.7 7 Oeste 18 Oeste 0 -- -- 28
2017-07-20 11:00:00 29.3 11 Oeste 20 Oeste 0 -- -- 32
2017-07-20 10:00:00 27 9 Oeste 19 Noroeste 0 -- -- 42
2017-07-20 09:00:00 24 4 Noroeste 14 Oeste 0 -- -- 70
2017-07-20 08:00:00 21.6 10 Oeste 19 Oeste 0 -- -- 83
2017-07-20 07:00:00 21.1 11 Oeste 15 Oeste 0 -- -- 89
2017-07-20 06:00:00 21.3 11 Oeste 16 Oeste 0 -- -- 89
2017-07-20 05:00:00 21.7 7 Oeste 11 Oeste 0 -- -- 90
2017-07-20 04:00:00 22.2 0 Calma 4 Nordeste 0 -- -- 89
2017-07-20 03:00:00 22.5 0 Calma -- -- 0 -- -- 86
2017-07-20 02:00:00 23.6 0 Calma -- -- 0 -- -- 84
2017-07-20 01:00:00 24.7 3 Sur 13 Sudeste 0 -- -- 79
2017-07-20 00:00:00 24.9 9 Sudeste 16 Sudeste 0 -- -- 79
2017-07-19 23:00:00 25.5 11 Sudeste 23 Sudeste 0 -- -- 75
2017-07-19 22:00:00 26.2 15 Sudeste 37 Este 0 -- -- 70
2017-07-19 21:00:00 27.4 18 Sudeste 41 Sudeste 0 -- -- 64
2017-07-19 20:00:00 29.2 23 Sudeste 40 Sudeste 0 -- -- 57
2017-07-19 19:00:00 30.8 21 Sudeste 45 Este 0 -- -- 51
2017-07-19 18:00:00 32.7 21 Este 41 Este 0 -- -- 44
2017-07-19 17:00:00 34.2 19 Sudeste 33 Sudeste 0 -- -- 35
2017-07-19 16:00:00 34.3 15 Sudeste 29 Sudeste 0 -- -- 35
2017-07-19 15:00:00 33.7 14 Sudeste 31 Este 0 -- -- 33
2017-07-19 14:00:00 32 11 Este 25 Sudeste 0 -- -- 34
2017-07-19 13:00:00 30.5 12 Sudeste 22 Este 0 -- -- 38
2017-07-19 12:00:00 30.1 5 Este 19 Este 0 -- -- 36
2017-07-19 11:00:00 28.9 5 Este 14 Este 0 -- -- 35
2017-07-19 10:00:00 25.6 8 Oeste 13 Oeste 0 -- -- 45
2017-07-19 09:00:00 23.4 7 Oeste 15 Oeste 0 -- -- 55
2017-07-19 08:00:00 21.5 6 Oeste 10 Oeste 0 -- -- 67
2017-07-19 07:00:00 20.9 0 Calma 8 Oeste 0 -- -- 70
2017-07-19 06:00:00 22.4 10 Sudoeste 16 Oeste 0 -- -- 66
2017-07-19 05:00:00 22.9 10 Oeste 17 Oeste 0 -- -- 62
2017-07-19 04:00:00 23.4 2 Nordeste 14 Sudoeste 0 -- -- 63
2017-07-19 03:00:00 23.9 8 Sudeste 17 Este 0 -- -- 59
2017-07-19 02:00:00 24.1 14 Sudeste 28 Sudeste 0 -- -- 56
2017-07-19 01:00:00 23.6 18 Sudeste 32 Sudeste 0 -- -- 70
2017-07-19 00:00:00 24 13 Este 27 Sudeste 0 -- -- 68